Time;durP1;ratioP1;P1;durP2;ratioP2;P2;SDS_P1;SDS_P2;PMS_P1;PMS_P2;Temp;Humidity;BMP_temperature;BMP_pressure;BME280_temperature;BME280_humidity;BME280_pressure;Samples;Min_cycle;Max_cycle;Signal;HPM_P1;HPM_P2
2022/10/31 00:01:36;;;;;;;13.52;6.05;;;13.60;99.90;;;-144.05;73.59;125687.94;5017727;28;20025;-88
2022/10/31 00:04:06;;;;;;;19.17;6.95;;;13.70;99.90;;;-144.05;73.28;125687.94;5036432;28;20490;-89
2022/10/31 00:06:33;;;;;;;12.15;6.07;;;13.70;99.90;;;-144.05;73.15;125687.94;5018740;28;20033;-88
2022/10/31 00:09:03;;;;;;;13.70;7.30;;;13.80;99.90;;;-144.05;72.95;125687.94;5019091;28;20116;-89
2022/10/31 00:11:30;;;;;;;12.05;6.50;;;13.80;99.90;;;-144.05;72.77;125687.94;5020256;28;20029;-88
2022/10/31 00:13:58;;;;;;;13.82;6.90;;;13.80;99.90;;;-144.05;72.61;125687.94;5020818;28;20060;-86
2022/10/31 00:16:27;;;;;;;15.43;8.07;;;13.80;99.90;;;-144.05;72.68;125687.94;5024940;28;20034;-85
2022/10/31 00:18:58;;;;;;;11.18;7.05;;;13.90;99.90;;;-144.05;72.29;125687.94;5033205;28;20378;-87
2022/10/31 00:21:28;;;;;;;16.75;6.80;;;14.00;99.90;;;-144.05;72.32;125687.94;5015342;28;20018;-86
2022/10/31 00:23:54;;;;;;;13.05;6.80;;;14.00;99.90;;;-144.05;71.94;125687.94;5015436;28;20048;-85
2022/10/31 00:26:20;;;;;;;14.38;6.57;;;14.00;99.90;;;-144.05;72.00;125687.94;5014911;28;20488;-88
2022/10/31 00:28:47;;;;;;;14.77;6.88;;;14.00;99.90;;;-144.05;71.56;125687.94;5015000;28;20029;-87
2022/10/31 00:31:16;;;;;;;13.05;6.68;;;14.00;99.90;;;-144.05;71.57;125687.94;5014762;28;20056;-87
2022/10/31 00:33:43;;;;;;;12.90;6.60;;;14.10;99.90;;;-144.05;71.54;125687.94;5014895;28;20029;-87
2022/10/31 00:36:16;;;;;;;11.95;7.05;;;14.10;99.90;;;-144.05;71.39;125687.94;5014598;28;20044;-87
2022/10/31 00:38:46;;;;;;;19.67;8.15;;;14.10;99.90;;;-144.05;71.44;125687.94;5013688;28;20080;-88
2022/10/31 00:41:16;;;;;;;12.68;7.13;;;14.10;99.90;;;-144.05;71.38;125687.94;5014718;28;20028;-85
2022/10/31 00:43:43;;;;;;;10.05;6.03;;;14.10;99.90;;;-144.05;71.23;125687.94;5014418;28;20095;-87
2022/10/31 00:46:12;;;;;;;10.02;6.47;;;14.10;99.90;;;-144.05;71.37;125687.94;5014471;28;20041;-88
2022/10/31 00:48:39;;;;;;;14.65;5.90;;;14.10;99.90;;;-144.05;71.20;125687.94;5014221;28;20029;-85
2022/10/31 00:51:08;;;;;;;13.95;7.00;;;14.10;99.90;;;-144.05;71.34;125687.94;5014484;28;20052;-87
2022/10/31 00:53:34;;;;;;;13.25;6.85;;;14.10;99.90;;;-144.05;71.14;125687.94;5030917;28;20441;-87
2022/10/31 00:56:00;;;;;;;10.80;6.03;;;14.10;99.90;;;-144.05;71.02;125687.94;5014060;28;20033;-89
2022/10/31 00:58:26;;;;;;;21.55;8.65;;;14.10;99.90;;;-144.05;71.21;125687.94;5014188;28;20029;-88
2022/10/31 01:00:55;;;;;;;12.65;6.57;;;14.10;99.90;;;-144.05;70.98;125687.94;5030788;28;20026;-88
2022/10/31 01:03:31;;;;;;;13.00;6.25;;;14.10;99.90;;;-144.05;71.17;125687.94;5030691;28;20071;-85
2022/10/31 01:06:05;;;;;;;11.85;6.65;;;14.10;99.90;;;-144.05;71.05;125687.94;5032350;28;20104;-88
2022/10/31 01:08:37;;;;;;;12.38;5.38;;;14.10;99.90;;;-144.05;71.06;125687.94;5014391;28;20033;-88
2022/10/31 01:11:22;;;;;;;9.50;5.60;;;14.10;99.90;;;-144.05;70.94;125687.94;5014984;28;20029;-87
2022/10/31 01:13:53;;;;;;;15.65;5.95;;;14.10;99.90;;;-144.05;71.03;125687.94;5014306;28;20090;-86
2022/10/31 01:16:25;;;;;;;11.60;5.50;;;14.10;99.90;;;-144.05;71.06;125687.94;5030708;28;20087;-86
2022/10/31 01:18:52;;;;;;;9.23;6.00;;;14.10;99.90;;;-144.05;71.13;125687.94;5014124;28;20032;-88
2022/10/31 01:21:26;;;;;;;14.63;7.10;;;13.90;99.90;;;-144.05;71.27;125687.94;5030559;28;20481;-87
2022/10/31 01:23:56;;;;;;;15.15;6.78;;;13.90;99.90;;;-144.05;71.39;125687.94;5014268;28;20071;-87
2022/10/31 01:26:27;;;;;;;10.50;6.28;;;13.90;99.90;;;-144.05;71.58;125687.94;5014295;28;20396;-87
2022/10/31 01:29:03;;;;;;;18.83;7.68;;;13.90;99.90;;;-144.05;71.90;125687.94;5031953;28;20044;-87
2022/10/31 01:31:35;;;;;;;14.23;6.03;;;13.90;99.90;;;-144.05;71.60;125687.94;5013988;28;20044;-87
2022/10/31 01:34:02;;;;;;;12.93;6.60;;;13.90;99.90;;;-144.05;71.72;125687.94;5014360;28;20130;-88
2022/10/31 01:36:34;;;;;;;12.63;6.28;;;13.90;99.90;;;-144.05;71.69;125687.94;5013884;28;20477;-86
2022/10/31 01:39:10;;;;;;;13.93;6.78;;;14.00;99.90;;;-144.05;71.55;125687.94;5014497;28;20120;-86
2022/10/31 01:41:46;;;;;;;13.48;6.55;;;14.00;99.90;;;-144.05;71.57;125687.94;5014023;28;20526;-87
2022/10/31 01:44:14;;;;;;;9.77;6.00;;;13.90;99.90;;;-144.05;71.52;125687.94;5014579;28;20492;-88
2022/10/31 01:47:22;;;;;;;12.55;5.88;;;14.00;99.90;;;-144.05;71.74;125687.94;5013965;28;20520;-87
2022/10/31 01:50:01;;;;;;;11.52;5.47;;;13.90;99.90;;;-144.05;71.75;125687.94;4978007;28;20596;-87
2022/10/31 01:52:46;;;;;;;9.52;5.85;;;13.90;99.90;;;-144.05;71.92;125687.94;5018247;28;20029;-88
2022/10/31 01:55:22;;;;;;;13.27;6.32;;;13.90;99.90;;;-144.05;73.05;125687.94;5018260;28;20079;-88
2022/10/31 01:57:57;;;;;;;15.75;8.10;;;13.90;99.90;;;-144.05;73.30;125687.94;5018399;28;20093;-87
2022/10/31 02:00:23;;;;;;;13.50;6.65;;;13.80;99.90;;;-144.05;73.13;125687.94;5018320;28;20566;-87
2022/10/31 02:02:51;;;;;;;22.48;7.82;;;13.80;99.90;;;-144.05;73.25;125687.94;5018262;28;20034;-86
2022/10/31 02:05:27;;;;;;;16.48;7.65;;;13.90;99.90;;;-144.05;73.32;125687.94;5018495;28;20438;-86
2022/10/31 02:08:02;;;;;;;;;;;13.90;99.90;;;-144.05;73.89;125687.94;5019045;28;20132;-89
2022/10/31 02:10:31;;;;;;;21.02;8.35;;;13.90;99.90;;;-144.05;73.72;125687.94;5019701;28;19935;-89
2022/10/31 02:13:03;;;;;;;19.63;8.95;;;14.00;99.90;;;-144.05;73.91;125687.94;5019441;28;20033;-87
2022/10/31 02:15:32;;;;;;;20.85;9.95;;;13.90;99.90;;;-144.05;74.03;125687.94;5021408;28;20037;-87
2022/10/31 02:18:00;;;;;;;18.50;8.73;;;13.80;99.90;;;-144.05;73.61;125687.94;5022343;28;20060;-85
2022/10/31 02:21:01;;;;;;;17.02;8.70;;;13.80;99.90;;;-144.05;73.74;125687.94;5020765;28;20029;-90
2022/10/31 02:24:39;;;;;;;18.05;8.23;;;13.70;99.90;;;-144.05;74.16;125687.94;5036440;28;20057;-87
2022/10/31 02:27:39;;;;;;;20.02;9.38;;;13.60;99.90;;;-144.05;74.40;125687.94;5018854;28;20091;-89
2022/10/31 02:30:11;;;;;;;12.18;7.45;;;13.40;99.90;;;-144.05;74.61;125687.94;5017686;28;20037;-87
2022/10/31 02:33:05;;;;;;;13.85;7.20;;;13.30;99.90;;;-144.05;74.98;125687.94;5017325;28;20057;-87
2022/10/31 02:35:54;;;;;;;19.85;8.32;;;13.10;99.90;;;-144.05;75.37;125687.94;5016899;28;20045;-86
2022/10/31 02:39:02;;;;;;;20.80;9.68;;;13.00;99.90;;;-144.05;75.79;125687.94;5016756;28;20029;-87
2022/10/31 02:41:47;;;;;;;13.85;7.35;;;12.90;99.90;;;-144.05;75.95;125687.94;5016943;28;20033;-86
2022/10/31 02:44:50;;;;;;;13.82;6.18;;;12.80;99.90;;;-144.05;76.12;125687.94;5016594;28;20040;-88
2022/10/31 02:47:26;;;;;;;13.68;8.57;;;12.60;99.90;;;-144.05;76.72;125687.94;5016530;28;20033;-87
2022/10/31 02:50:16;;;;;;;;;;;12.50;99.90;;;-144.05;77.26;125687.94;5016744;28;20032;-87
2022/10/31 02:52:42;;;;;;;15.82;7.70;;;12.50;99.90;;;-144.05;77.40;125687.94;5016343;28;19967;-87
2022/10/31 02:55:28;;;;;;;14.00;7.55;;;12.50;99.90;;;-144.05;77.42;125687.94;5016510;28;20393;-89
2022/10/31 02:58:14;;;;;;;15.82;8.40;;;12.40;99.90;;;-144.05;78.11;125687.94;5016511;28;20108;-87
2022/10/31 03:01:13;;;;;;;14.65;7.68;;;12.40;99.90;;;-144.05;78.40;125687.94;5033451;28;20468;-88
2022/10/31 03:03:59;;;;;;;15.25;8.50;;;12.30;99.90;;;-144.05;78.30;125687.94;5016436;28;20440;-87
2022/10/31 03:07:08;;;;;;;19.45;8.75;;;12.30;99.90;;;-144.05;78.51;125687.94;5016491;28;20473;-88
2022/10/31 03:10:32;;;;;;;15.13;7.88;;;12.20;99.90;;;-144.05;78.39;125687.94;5016119;28;20498;-89
2022/10/31 03:13:43;;;;;;;15.82;8.35;;;12.20;99.90;;;-144.05;78.73;125687.94;5016024;28;20026;-87
2022/10/31 03:16:30;;;;;;;15.15;8.32;;;12.00;99.90;;;-144.05;78.89;125687.94;5017686;28;20043;-87
2022/10/31 03:19:42;;;;;;;17.20;9.10;;;11.90;99.90;;;-144.05;79.45;125687.94;5015942;28;20029;-88
2022/10/31 03:22:25;;;;;;;16.45;8.88;;;11.90;99.90;;;-144.05;79.87;125687.94;5016112;28;20217;-88
2022/10/31 03:24:55;;;;;;;20.27;8.93;;;11.90;99.90;;;-144.05;79.64;125687.94;5016130;28;20139;-89
2022/10/31 03:27:32;;;;;;;13.32;7.60;;;12.00;99.90;;;-144.05;80.07;125687.94;5015757;28;20036;-87
2022/10/31 03:30:07;;;;;;;19.63;8.02;;;11.90;99.90;;;-144.05;81.03;125687.94;5015701;28;20099;-87
2022/10/31 03:32:55;;;;;;;20.03;9.60;;;11.90;99.90;;;-144.05;81.56;125687.94;5016800;28;20053;-87
2022/10/31 03:35:28;;;;;;;17.20;9.57;;;12.00;99.90;;;-144.05;81.50;125687.94;5015792;28;20095;-86
2022/10/31 03:37:59;;;;;;;27.92;11.82;;;12.00;99.90;;;-144.05;82.29;125687.94;5016028;28;20078;-89
2022/10/31 03:40:34;;;;;;;25.83;12.30;;;12.00;99.90;;;-144.05;83.05;125687.94;5016461;28;20022;-86
2022/10/31 03:43:10;;;;;;;26.63;12.43;;;12.00;99.90;;;-144.05;82.48;125687.94;5016565;28;20029;-87
2022/10/31 03:45:47;;;;;;;34.72;13.48;;;12.10;99.90;;;-144.05;83.00;125687.94;5032707;28;20029;-88
2022/10/31 03:48:18;;;;;;;24.42;11.38;;;12.20;99.90;;;-144.05;82.57;125687.94;5032556;28;20029;-88
2022/10/31 03:51:25;;;;;;;21.40;10.75;;;12.30;99.90;;;-144.05;82.19;125687.94;5016220;28;20056;-86
2022/10/31 03:54:51;;;;;;;;;;;;;;;;;;;;;
2022/10/31 03:57:57;;;;;;;16.02;7.90;;;12.10;99.90;;;-144.05;81.37;125687.94;5033907;28;20480;-89
2022/10/31 04:00:26;;;;;;;12.65;7.97;;;12.00;99.90;;;-144.05;81.45;125687.94;5016304;28;20045;-89
2022/10/31 04:03:07;;;;;;;16.98;8.77;;;11.90;99.90;;;-144.05;81.05;125687.94;5016342;28;20033;-87
2022/10/31 04:05:42;;;;;;;17.35;7.88;;;11.70;99.90;;;-144.05;81.42;125687.94;5000529;28;20069;-88
2022/10/31 04:08:21;;;;;;;22.05;8.57;;;11.50;99.90;;;-144.05;81.54;125687.94;5034665;28;20021;-88
2022/10/31 04:10:57;;;;;;;28.23;10.20;;;11.60;99.90;;;-144.05;82.60;125687.94;5016960;28;20116;-88
2022/10/31 04:13:53;;;;;;;24.50;12.77;;;11.60;99.90;;;-144.05;83.84;125687.94;5034931;28;20037;-89
2022/10/31 04:16:28;;;;;;;22.80;11.68;;;11.80;99.90;;;-144.05;83.14;125687.94;5034656;28;20420;-88
2022/10/31 04:18:59;;;;;;;24.37;13.50;;;11.90;99.90;;;-144.05;84.17;125687.94;5017798;28;20037;-89
2022/10/31 04:21:31;;;;;;;21.83;11.82;;;12.00;99.90;;;-144.05;83.33;125687.94;5018421;28;20555;-87
2022/10/31 04:24:02;;;;;;;23.20;11.27;;;12.00;99.90;;;-144.05;83.41;125687.94;5018449;28;20075;-89
2022/10/31 04:26:31;;;;;;;18.88;11.05;;;12.10;99.90;;;-144.05;82.84;125687.94;5018914;28;20101;-87
2022/10/31 04:29:02;;;;;;;17.88;10.23;;;12.10;99.90;;;-144.05;82.48;125687.94;5032772;28;20089;-84
2022/10/31 04:36:36;;;;;;;15.52;9.40;;;11.90;99.90;;;-144.05;82.32;125687.94;5014694;28;20053;-79
2022/10/31 04:39:02;;;;;;;18.52;9.45;;;11.90;99.90;;;-144.05;82.29;125687.94;5016601;28;20061;-80
2022/10/31 04:41:28;;;;;;;15.20;9.15;;;11.70;99.90;;;-144.05;82.17;125687.94;5018902;28;20021;-82
2022/10/31 04:43:54;;;;;;;20.58;10.60;;;11.70;99.90;;;-144.05;82.38;125687.94;5022335;28;20030;-81
2022/10/31 04:46:23;;;;;;;17.48;9.20;;;11.70;99.90;;;-144.05;82.16;125687.94;5019601;28;20041;-82
2022/10/31 04:48:49;;;;;;;23.02;11.23;;;11.60;99.90;;;-144.05;82.12;125687.94;5015648;28;20076;-82
2022/10/31 04:51:15;;;;;;;17.05;8.98;;;11.60;99.90;;;-144.05;82.01;125687.94;5015470;28;20030;-81
2022/10/31 04:53:40;;;;;;;17.15;8.82;;;11.60;99.90;;;-144.05;81.94;125687.94;5015196;28;20497;-82
2022/10/31 04:56:07;;;;;;;20.63;10.18;;;11.50;99.90;;;-144.05;82.03;125687.94;5029540;28;20489;-83
2022/10/31 04:58:32;;;;;;;24.30;9.75;;;11.50;99.90;;;-144.05;82.22;125687.94;5013128;28;20044;-82
2022/10/31 05:00:58;;;;;;;20.63;9.07;;;11.50;99.90;;;-144.05;82.19;125687.94;5014545;28;20053;-81
2022/10/31 05:03:24;;;;;;;17.40;8.55;;;11.40;99.90;;;-144.05;82.27;125687.94;5014395;28;20052;-82
2022/10/31 05:05:50;;;;;;;20.17;9.30;;;11.40;99.90;;;-144.05;82.17;125687.94;5029595;28;20045;-82
2022/10/31 05:08:16;;;;;;;17.63;8.73;;;11.30;99.90;;;-144.05;82.16;125687.94;5014441;28;20405;-82
2022/10/31 05:10:42;;;;;;;17.83;10.07;;;11.30;99.90;;;-144.05;82.36;125687.94;5028919;28;20065;-82
2022/10/31 05:13:08;;;;;;;17.90;10.02;;;11.30;99.90;;;-144.05;82.44;125687.94;5012483;28;20089;-82
2022/10/31 05:15:34;;;;;;;20.42;9.95;;;11.30;99.90;;;-144.05;82.41;125687.94;5012624;28;20079;-81
2022/10/31 05:18:00;;;;;;;20.85;9.73;;;11.30;99.90;;;-144.05;82.65;125687.94;5013914;28;20030;-81
2022/10/31 05:20:30;;;;;;;19.08;9.55;;;11.20;99.90;;;-144.05;82.60;125687.94;5013908;28;20034;-82
2022/10/31 05:22:58;;;;;;;17.13;9.98;;;11.30;99.90;;;-144.05;82.38;125687.94;5014149;28;20160;-81
2022/10/31 05:25:28;;;;;;;16.52;9.10;;;11.20;99.90;;;-144.05;82.52;125687.94;5020403;28;20087;-81
2022/10/31 05:27:56;;;;;;;20.85;10.25;;;11.20;99.90;;;-144.05;82.66;125687.94;5020753;28;20030;-80
2022/10/31 05:30:31;;;;;;;18.63;9.43;;;11.10;99.90;;;-144.05;82.59;125687.94;5020212;28;20034;-81
2022/10/31 05:32:58;;;;;;;16.38;8.82;;;11.10;99.90;;;-144.05;82.66;125687.94;5018614;28;20393;-83
2022/10/31 05:35:31;;;;;;;15.32;8.40;;;11.00;99.90;;;-144.05;82.44;125687.94;5035663;28;20113;-81
2022/10/31 05:37:59;;;;;;;17.63;9.55;;;11.00;99.90;;;-144.05;82.59;125687.94;5020747;28;20030;-82
2022/10/31 05:40:28;;;;;;;19.35;9.82;;;10.90;99.90;;;-144.05;82.66;125687.94;5018873;28;20439;-83
2022/10/31 05:42:58;;;;;;;24.42;11.15;;;10.90;99.90;;;-144.05;82.64;125687.94;5019333;28;20116;-80
2022/10/31 05:45:24;;;;;;;20.20;10.07;;;10.80;99.90;;;-144.05;82.70;125687.94;5018649;28;20029;-80
2022/10/31 05:48:01;;;;;;;16.52;9.27;;;10.80;99.90;;;-144.05;83.04;125687.94;5020301;28;20124;-81
2022/10/31 05:50:31;;;;;;;20.45;10.57;;;10.80;99.90;;;-144.05;82.84;125687.94;5020126;28;20022;-83
2022/10/31 05:53:05;;;;;;;22.52;10.30;;;10.80;99.90;;;-144.05;83.04;125687.94;5020600;28;20026;-82
2022/10/31 05:55:32;;;;;;;17.85;10.38;;;10.80;99.90;;;-144.05;82.99;125687.94;5021331;28;20058;-83
2022/10/31 05:57:58;;;;;;;18.33;10.10;;;10.80;99.90;;;-144.05;83.13;125687.94;5018854;28;20025;-81
2022/10/31 06:00:26;;;;;;;16.95;8.93;;;10.90;99.90;;;-144.05;82.97;125687.94;5020333;28;20073;-82
2022/10/31 06:03:06;;;;;;;13.43;8.52;;;10.80;99.90;;;-144.05;82.82;125687.94;5019794;28;20108;-80
2022/10/31 06:05:33;;;;;;;20.30;9.02;;;10.70;99.90;;;-144.05;82.71;125687.94;5035979;28;20117;-81
2022/10/31 06:07:59;;;;;;;13.98;8.65;;;10.70;99.90;;;-144.05;82.94;125687.94;5020228;28;20042;-80
2022/10/31 06:10:26;;;;;;;18.27;9.27;;;10.60;99.90;;;-144.05;83.23;125687.94;5019995;28;20440;-83
2022/10/31 06:12:52;;;;;;;17.23;9.95;;;10.60;99.90;;;-144.05;83.20;125687.94;5021009;28;20129;-84
2022/10/31 06:15:19;;;;;;;21.95;10.25;;;10.60;99.90;;;-144.05;83.26;125687.94;5019504;28;20397;-83
2022/10/31 06:17:44;;;;;;;20.92;10.30;;;10.60;99.90;;;-144.05;83.07;125687.94;5022439;28;20025;-81
2022/10/31 06:20:11;;;;;;;20.17;11.38;;;10.80;99.90;;;-144.05;83.42;125687.94;5033333;28;20057;-81
2022/10/31 06:22:37;;;;;;;23.17;11.60;;;10.80;99.90;;;-144.05;83.41;125687.94;5032067;28;20066;-81
2022/10/31 06:25:03;;;;;;;22.65;11.98;;;10.90;99.90;;;-144.05;83.99;125687.94;5031430;28;20029;-82
2022/10/31 06:27:29;;;;;;;25.63;12.80;;;11.00;99.90;;;-144.05;83.64;125687.94;5021487;28;20034;-83
2022/10/31 06:29:55;;;;;;;29.00;12.57;;;11.10;99.90;;;-144.05;83.66;125687.94;5019709;28;20033;-81
2022/10/31 06:32:21;;;;;;;20.75;12.07;;;11.10;99.90;;;-144.05;83.53;125687.94;5019895;28;20065;-82
2022/10/31 06:34:50;;;;;;;23.02;10.63;;;11.10;99.90;;;-144.05;83.18;125687.94;5019306;28;20072;-82
2022/10/31 06:37:16;;;;;;;24.88;10.57;;;11.10;99.90;;;-144.05;82.79;125687.94;5021579;28;20034;-82
2022/10/31 06:39:42;;;;;;;25.33;9.52;;;11.10;99.90;;;-144.05;82.71;125687.94;5020425;28;20076;-82
2022/10/31 06:42:07;;;;;;;17.02;8.75;;;11.00;99.90;;;-144.05;82.88;125687.94;5018291;28;20022;-82
2022/10/31 06:44:33;;;;;;;15.18;8.65;;;11.10;99.90;;;-144.05;82.98;125687.94;5017330;28;20029;-82
2022/10/31 06:47:00;;;;;;;13.65;8.05;;;11.00;99.90;;;-144.05;82.59;125687.94;5018608;28;20439;-85
2022/10/31 06:49:25;;;;;;;13.05;7.45;;;11.00;99.90;;;-144.05;82.47;125687.94;5017071;28;20029;-82
2022/10/31 06:51:51;;;;;;;13.57;7.63;;;11.00;99.90;;;-144.05;82.82;125687.94;5016735;28;20496;-82
2022/10/31 06:54:17;;;;;;;21.02;10.55;;;11.00;99.90;;;-144.05;82.78;125687.94;5018026;28;20030;-83
2022/10/31 06:56:47;;;;;;;18.42;9.43;;;11.00;99.90;;;-144.05;82.48;125687.94;5019325;28;20111;-81
2022/10/31 06:59:14;;;;;;;18.45;9.10;;;11.00;99.90;;;-144.05;82.44;125687.94;5020496;28;20022;-81
2022/10/31 07:01:40;;;;;;;18.73;9.07;;;11.10;99.90;;;-144.05;82.39;125687.94;5016775;28;20061;-82
2022/10/31 07:04:05;;;;;;;12.80;8.25;;;11.20;99.90;;;-144.05;82.06;125687.94;5029797;28;20026;-80
2022/10/31 07:06:31;;;;;;;13.35;8.10;;;11.20;99.90;;;-144.05;82.32;125687.94;5033000;28;20038;-81
2022/10/31 07:08:57;;;;;;;16.25;7.38;;;11.10;99.90;;;-144.05;82.25;125687.94;5033000;28;20022;-80
2022/10/31 07:11:23;;;;;;;17.00;9.07;;;11.20;99.90;;;-144.05;82.05;125687.94;5031757;28;20048;-81
2022/10/31 07:13:49;;;;;;;20.80;10.60;;;11.30;99.90;;;-144.05;81.54;125687.94;5026399;28;20026;-81
2022/10/31 07:16:14;;;;;;;16.05;9.10;;;11.40;99.90;;;-144.05;81.42;125687.94;5026489;28;20117;-82
2022/10/31 07:18:40;;;;;;;15.02;8.45;;;11.40;99.90;;;-144.05;81.46;125687.94;5021945;28;20389;-82
2022/10/31 07:21:06;;;;;;;15.15;8.88;;;11.50;99.90;;;-144.05;81.17;125687.94;5017035;28;20033;-83
2022/10/31 07:23:32;;;;;;;15.57;7.93;;;11.50;99.90;;;-144.05;81.05;125687.94;5015700;28;20082;-84
2022/10/31 07:25:59;;;;;;;14.60;7.85;;;11.60;99.90;;;-144.05;81.12;125687.94;5032300;28;20125;-82
2022/10/31 07:28:27;;;;;;;15.27;7.90;;;11.60;99.90;;;-144.05;80.93;125687.94;5016835;28;20029;-82
2022/10/31 07:30:57;;;;;;;11.40;7.10;;;11.70;99.90;;;-144.05;80.79;125687.94;5016402;28;20417;-84
2022/10/31 07:33:27;;;;;;;11.68;7.78;;;11.80;99.90;;;-144.05;80.62;125687.94;5016114;28;20091;-83
2022/10/31 07:35:54;;;;;;;12.35;8.05;;;11.80;99.90;;;-144.05;80.60;125687.94;5016107;28;20096;-82
2022/10/31 07:38:20;;;;;;;13.25;7.43;;;11.90;99.90;;;-144.05;80.46;125687.94;5016810;28;20382;-82
2022/10/31 07:40:55;;;;;;;13.73;7.65;;;12.00;99.90;;;-144.05;80.59;125687.94;5031387;28;20049;-82
2022/10/31 07:43:22;;;;;;;13.10;7.17;;;12.10;99.90;;;-144.05;80.09;125687.94;5017150;28;20025;-82
2022/10/31 07:45:53;;;;;;;17.88;8.27;;;12.20;99.90;;;-144.05;79.85;125687.94;5016051;28;20355;-80
2022/10/31 07:48:20;;;;;;;16.30;9.45;;;12.30;99.90;;;-144.05;79.60;125687.94;5015748;28;20045;-81
2022/10/31 07:50:46;;;;;;;13.38;8.32;;;12.30;99.90;;;-144.05;79.72;125687.94;5014396;28;20397;-81
2022/10/31 07:53:14;;;;;;;16.55;9.02;;;12.30;99.90;;;-144.05;79.65;125687.94;5016048;28;20056;-80
2022/10/31 07:55:41;;;;;;;20.30;9.38;;;12.30;99.90;;;-144.05;79.45;125687.94;5015995;28;20269;-83
2022/10/31 07:58:14;;;;;;;15.18;8.93;;;12.30;99.90;;;-144.05;79.42;125687.94;5031027;28;20041;-79
2022/10/31 08:00:44;;;;;;;17.80;9.70;;;12.30;99.90;;;-144.05;79.17;125687.94;5030872;28;20026;-80
2022/10/31 08:03:15;;;;;;;18.75;10.00;;;12.30;99.90;;;-144.05;79.10;125687.94;5015157;28;20048;-81
2022/10/31 08:05:42;;;;;;;16.55;9.77;;;12.40;99.90;;;-144.05;79.17;125687.94;5015381;28;20033;-80
2022/10/31 08:08:08;;;;;;;16.40;8.35;;;12.40;99.90;;;-144.05;79.05;125687.94;5016242;28;20034;-82
2022/10/31 08:10:35;;;;;;;15.75;8.65;;;12.40;99.90;;;-144.05;78.93;125687.94;5016187;28;20033;-83
2022/10/31 08:13:13;;;;;;;20.45;9.77;;;12.50;99.90;;;-144.05;78.62;125687.94;5015547;28;20049;-82
2022/10/31 08:15:41;;;;;;;17.08;10.15;;;12.50;99.90;;;-144.05;78.56;125687.94;5030024;28;20034;-81
2022/10/31 08:18:14;;;;;;;18.58;10.38;;;12.60;99.90;;;-144.05;78.43;125687.94;5014709;28;20038;-81
2022/10/31 08:20:42;;;;;;;27.83;10.35;;;12.70;99.90;;;-144.05;78.25;125687.94;5015321;28;20465;-81
2022/10/31 08:23:12;;;;;;;21.58;10.32;;;12.80;99.90;;;-144.05;78.07;125687.94;5014933;28;20029;-81
2022/10/31 08:25:38;;;;;;;18.80;9.45;;;12.90;99.90;;;-144.05;77.98;125687.94;5012874;28;20034;-81
2022/10/31 08:28:08;;;;;;;22.38;10.18;;;13.10;99.90;;;-144.05;77.69;125687.94;5013225;28;20052;-83
2022/10/31 08:30:37;;;;;;;20.55;10.60;;;13.30;99.90;;;-144.05;77.43;125687.94;5012607;28;20030;-81
2022/10/31 08:33:10;;;;;;;17.58;10.40;;;13.50;99.90;;;-144.05;77.13;125687.94;5014793;28;20163;-82
2022/10/31 08:35:36;;;;;;;17.05;10.40;;;13.60;99.90;;;-144.05;76.58;125687.94;5012978;28;20030;-83
2022/10/31 08:38:02;;;;;;;22.83;11.52;;;13.80;99.90;;;-144.05;76.21;125687.94;5013260;28;20045;-85
2022/10/31 08:40:32;;;;;;;23.50;11.70;;;13.90;99.90;;;-144.05;75.82;125687.94;5012687;28;20022;-82
2022/10/31 08:43:11;;;;;;;22.23;11.48;;;14.10;99.90;;;-144.05;75.46;125687.94;5016238;28;20026;-82
2022/10/31 08:45:36;;;;;;;22.90;11.90;;;14.20;99.90;;;-144.05;73.90;125687.94;5012889;28;20108;-79
2022/10/31 08:48:09;;;;;;;19.33;11.73;;;14.20;99.90;;;-144.05;73.57;125687.94;5014061;28;20464;-79
2022/10/31 08:50:36;;;;;;;20.50;11.23;;;14.40;99.90;;;-144.05;73.00;125687.94;5012097;28;20512;-79
2022/10/31 08:53:14;;;;;;;29.23;12.93;;;14.60;99.90;;;-144.05;71.67;125687.94;5013733;28;20038;-79
2022/10/31 08:55:43;;;;;;;20.67;11.68;;;14.90;99.90;;;-144.05;70.68;125687.94;5012453;28;20026;-79
2022/10/31 08:58:19;;;;;;;23.55;11.18;;;15.10;99.90;;;-144.05;69.67;125687.94;5013360;28;20026;-77
2022/10/31 09:00:50;;;;;;;21.45;11.38;;;15.20;99.90;;;-144.05;69.34;125687.94;5012620;28;20523;-82
2022/10/31 09:03:24;;;;;;;22.15;10.77;;;15.40;99.90;;;-144.05;68.59;125687.94;5011749;28;20025;-82
2022/10/31 09:05:55;;;;;;;23.40;11.50;;;15.60;99.90;;;-144.05;67.61;125687.94;5013351;28;20044;-82
2022/10/31 09:08:22;;;;;;;27.17;11.50;;;15.70;99.90;;;-144.05;66.55;125687.94;5011792;28;20030;-81
2022/10/31 09:10:48;;;;;;;25.30;11.43;;;15.70;99.90;;;-144.05;67.15;125687.94;5011927;28;20057;-80
2022/10/31 09:13:20;;;;;;;25.42;12.43;;;15.80;99.90;;;-144.05;66.58;125687.94;5012366;28;20574;-80
2022/10/31 09:15:49;;;;;;;26.20;12.77;;;15.90;99.90;;;-144.05;65.87;125687.94;5012303;28;20030;-80
2022/10/31 09:18:21;;;;;;;20.73;11.93;;;16.00;99.90;;;-144.05;65.88;125687.94;5028457;28;20572;-80
2022/10/31 09:20:49;;;;;;;26.85;12.07;;;16.10;99.90;;;-144.05;64.84;125687.94;5013669;28;20104;-78
2022/10/31 09:23:22;;;;;;;23.65;11.82;;;16.20;99.90;;;-144.05;64.56;125687.94;5013667;28;20029;-82
2022/10/31 09:25:52;;;;;;;26.75;12.18;;;16.30;99.90;;;-144.05;64.20;125687.94;5014092;28;20033;-80
2022/10/31 09:28:22;;;;;;;29.85;12.43;;;16.20;99.90;;;-144.05;64.11;125687.94;5013166;28;20053;-81
2022/10/31 09:30:52;;;;;;;22.95;11.60;;;16.30;99.90;;;-144.05;63.84;125687.94;5012418;28;20037;-80
2022/10/31 09:33:20;;;;;;;31.65;11.57;;;16.40;99.90;;;-144.05;63.52;125687.94;5013823;28;20041;-79
2022/10/31 09:35:46;;;;;;;22.48;11.30;;;16.50;99.90;;;-144.05;62.53;125687.94;5011932;28;20038;-81
2022/10/31 09:38:20;;;;;;;24.48;12.05;;;16.60;99.90;;;-144.05;62.47;125687.94;5012215;28;20029;-81
2022/10/31 09:41:28;;;;;;;27.80;13.43;;;16.70;99.90;;;-144.05;61.53;125687.94;5012763;28;20113;-78
2022/10/31 09:44:53;;;;;;;23.80;11.05;;;16.70;99.90;;;-144.05;61.25;125687.94;5007915;28;20049;-80
2022/10/31 09:47:57;;;;;;;29.95;13.02;;;17.00;99.90;;;-144.05;59.58;125687.94;5013059;28;20036;-81
2022/10/31 09:50:49;;;;;;;25.50;11.27;;;17.40;99.90;;;-144.05;58.29;125687.94;5013820;28;20038;-78
2022/10/31 09:53:43;;;;;;;25.92;12.57;;;17.70;99.90;;;-144.05;58.18;125687.94;5012206;28;20029;-80
2022/10/31 09:56:18;;;;;;;28.90;13.43;;;17.80;99.90;;;-144.05;57.51;125687.94;5014589;28;20108;-81
2022/10/31 09:58:59;;;;;;;35.65;14.75;;;17.90;99.90;;;-144.05;57.75;125687.94;5013575;28;20033;-81
2022/10/31 10:01:46;;;;;;;26.42;12.68;;;17.90;99.90;;;-144.05;57.80;125687.94;5012817;28;20038;-82
2022/10/31 10:05:00;;;;;;;24.27;12.30;;;18.00;99.90;;;-144.05;56.96;125687.94;5012867;28;20033;-79
2022/10/31 10:07:32;;;;;;;24.50;10.50;;;18.00;99.90;;;-144.05;57.26;125687.94;5014987;28;20030;-80
2022/10/31 10:10:16;;;;;;;25.42;13.70;;;18.00;99.90;;;-144.05;56.79;125687.94;5012854;28;20026;-80
2022/10/31 10:13:39;;;;;;;31.98;14.32;;;17.90;99.90;;;-144.05;57.61;125687.94;5016845;28;20030;-79
2022/10/31 10:17:02;;;;;;;28.02;13.18;;;17.90;99.90;;;-144.05;57.92;125687.94;5017281;28;20033;-80
2022/10/31 10:20:13;;;;;;;30.85;13.65;;;17.80;99.90;;;-144.05;58.00;125687.94;5016806;28;20214;-80
2022/10/31 10:23:29;;;;;;;39.80;14.07;;;17.70;99.90;;;-144.05;57.75;125687.94;5015123;28;20117;-80
2022/10/31 10:26:15;;;;;;;27.52;13.55;;;17.70;99.90;;;-144.05;58.36;125687.94;5015741;28;20112;-80
2022/10/31 10:28:54;;;;;;;28.98;13.50;;;17.70;99.90;;;-144.05;58.20;125687.94;5015427;28;20029;-82